Time;durP1;ratioP1;P1;durP2;ratioP2;P2;SDS_P1;SDS_P2;PMS_P1;PMS_P2;Temp;Humidity;BMP_temperature;BMP_pressure;BME280_temperature;BME280_humidity;BME280_pressure;Samples;Min_cycle;Max_cycle;Signal;HPM_P1;HPM_P2
2021/08/23 00:01:39;;;;;;;11.13;7.47;;;;;;;;;;4988319;28;20491;-74
2021/08/23 00:04:05;;;;;;;11.25;7.88;;;;;;;;;;4986742;28;20043;-74
2021/08/23 00:06:31;;;;;;;11.88;7.28;;;;;;;;;;4982007;28;20038;-74
2021/08/23 00:08:57;;;;;;;10.90;7.85;;;;;;;;;;4992767;28;20026;-74
2021/08/23 00:11:23;;;;;;;11.70;7.93;;;;;;;;;;4982966;28;20027;-73
2021/08/23 00:13:49;;;;;;;11.25;7.88;;;;;;;;;;4989248;28;20031;-74
2021/08/23 00:16:15;;;;;;;11.93;7.97;;;;;;;;;;4987847;28;20388;-73
2021/08/23 00:18:41;;;;;;;10.55;7.93;;;;;;;;;;4987157;28;20214;-73
2021/08/23 00:21:12;;;;;;;9.90;7.43;;;;;;;;;;4982855;28;20118;-73
2021/08/23 00:23:40;;;;;;;12.18;7.70;;;;;;;;;;4988914;28;20040;-73
2021/08/23 00:26:06;;;;;;;11.85;6.95;;;;;;;;;;4981981;28;20038;-74
2021/08/23 00:28:32;;;;;;;13.45;8.52;;;;;;;;;;4992199;28;20037;-73
2021/08/23 00:30:58;;;;;;;11.27;7.95;;;;;;;;;;4993192;28;20093;-73
2021/08/23 00:33:24;;;;;;;11.60;7.90;;;;;;;;;;4984943;28;20058;-74
2021/08/23 00:35:50;;;;;;;16.98;7.90;;;;;;;;;;4981778;28;20022;-74
2021/08/23 00:38:16;;;;;;;11.07;7.68;;;;;;;;;;4991202;28;20812;-73
2021/08/23 00:40:41;;;;;;;11.98;7.93;;;;;;;;;;4980280;28;20031;-73
2021/08/23 00:43:07;;;;;;;10.57;7.20;;;;;;;;;;4987367;28;20050;-73
2021/08/23 00:45:33;;;;;;;12.20;8.55;;;;;;;;;;4982344;28;20419;-73
2021/08/23 00:47:59;;;;;;;9.82;7.65;;;;;;;;;;4986681;28;20043;-74
2021/08/23 00:50:25;;;;;;;12.50;7.35;;;;;;;;;;4991450;28;20104;-73
2021/08/23 00:52:51;;;;;;;11.35;8.07;;;;;;;;;;4981667;28;20476;-74
2021/08/23 00:55:17;;;;;;;10.93;7.97;;;;;;;;;;4988814;28;20669;-74
2021/08/23 00:57:43;;;;;;;9.30;6.97;;;;;;;;;;4989749;28;20050;-74
2021/08/23 01:00:10;;;;;;;10.80;7.53;;;;;;;;;;4991163;28;20033;-73
2021/08/23 01:02:39;;;;;;;16.60;8.48;;;;;;;;;;4991468;28;20045;-74
2021/08/23 01:05:08;;;;;;;11.55;8.13;;;;;;;;;;4989733;28;20411;-73
2021/08/23 01:07:50;;;;;;;10.75;7.68;;;;;;;;;;4986071;28;20056;-73
2021/08/23 01:10:18;;;;;;;9.35;7.15;;;;;;;;;;4989611;28;20050;-74
2021/08/23 01:12:44;;;;;;;11.07;7.60;;;;;;;;;;4989538;28;20038;-73
2021/08/23 01:15:10;;;;;;;10.40;7.57;;;;;;;;;;4983835;28;20034;-74
2021/08/23 01:17:36;;;;;;;9.77;7.55;;;;;;;;;;4983304;28;20022;-74
2021/08/23 01:20:04;;;;;;;10.60;6.95;;;;;;;;;;4979203;28;20045;-74
2021/08/23 01:22:32;;;;;;;11.20;6.90;;;;;;;;;;4989485;28;20034;-73
2021/08/23 01:25:00;;;;;;;9.52;7.30;;;;;;;;;;4989360;28;20038;-71
2021/08/23 01:27:27;;;;;;;9.88;6.78;;;;;;;;;;4983518;28;20035;-74
2021/08/23 01:29:59;;;;;;;11.38;7.22;;;;;;;;;;4986821;28;20026;-73
2021/08/23 01:32:26;;;;;;;11.63;6.82;;;;;;;;;;4988097;28;20026;-74
2021/08/23 01:34:53;;;;;;;10.07;7.45;;;;;;;;;;4985591;28;20023;-74
2021/08/23 01:37:19;;;;;;;11.25;7.38;;;;;;;;;;4990499;28;20503;-74
2021/08/23 01:39:45;;;;;;;9.30;6.57;;;;;;;;;;4984997;28;20106;-73
2021/08/23 01:42:12;;;;;;;8.95;7.05;;;;;;;;;;4989237;28;20113;-74
2021/08/23 01:44:38;;;;;;;10.50;7.60;;;;;;;;;;4981236;28;20113;-73
2021/08/23 01:47:04;;;;;;;10.48;7.63;;;;;;;;;;4982205;28;20546;-73
2021/08/23 01:49:29;;;;;;;12.45;7.63;;;;;;;;;;4989672;28;20109;-74
2021/08/23 01:51:55;;;;;;;10.02;7.35;;;;;;;;;;4986594;28;20362;-74
2021/08/23 01:54:22;;;;;;;11.02;7.38;;;;;;;;;;4989631;28;20408;-74
2021/08/23 01:56:48;;;;;;;11.13;7.47;;;;;;;;;;4986484;28;20077;-73
2021/08/23 01:59:14;;;;;;;10.18;7.32;;;;;;;;;;4987244;28;20034;-73
2021/08/23 02:01:40;;;;;;;10.50;7.55;;;;;;;;;;4983208;28;20031;-74
2021/08/23 02:04:05;;;;;;;10.77;8.20;;;;;;;;;;4981009;28;20121;-73
2021/08/23 02:06:31;;;;;;;13.07;7.35;;;;;;;;;;4984014;28;20030;-74
2021/08/23 02:08:58;;;;;;;9.25;7.10;;;;;;;;;;4988911;28;20045;-74
2021/08/23 02:11:29;;;;;;;7.68;6.35;;;;;;;;;;4987274;28;20030;-74
2021/08/23 02:13:55;;;;;;;8.50;6.18;;;;;;;;;;4983463;28;20030;-74
2021/08/23 02:16:22;;;;;;;8.00;6.07;;;;;;;;;;4981978;28;20022;-74
2021/08/23 02:18:48;;;;;;;8.38;6.13;;;;;;;;;;4989488;28;20035;-74
2021/08/23 02:21:14;;;;;;;7.95;5.72;;;;;;;;;;4986680;28;20049;-73
2021/08/23 02:23:41;;;;;;;6.90;4.88;;;;;;;;;;4987626;28;20038;-74
2021/08/23 02:26:07;;;;;;;5.97;5.00;;;;;;;;;;4977386;28;20049;-74
2021/08/23 02:28:33;;;;;;;5.18;4.15;;;;;;;;;;4981466;28;20022;-73
2021/08/23 02:30:59;;;;;;;4.38;3.83;;;;;;;;;;4989156;28;20516;-74
2021/08/23 02:33:25;;;;;;;3.50;2.90;;;;;;;;;;4987804;28;20112;-73
2021/08/23 02:35:50;;;;;;;5.05;3.45;;;;;;;;;;4987831;28;20030;-73
2021/08/23 02:38:16;;;;;;;3.80;2.92;;;;;;;;;;4990256;28;20093;-73
2021/08/23 02:40:42;;;;;;;3.45;2.72;;;;;;;;;;4989434;28;20026;-73
2021/08/23 02:43:08;;;;;;;3.10;2.80;;;;;;;;;;4987202;28;20427;-74
2021/08/23 02:45:34;;;;;;;3.03;2.72;;;;;;;;;;4987401;28;20027;-74
2021/08/23 02:48:00;;;;;;;3.13;2.40;;;;;;;;;;4987473;28;20038;-74
2021/08/23 02:50:26;;;;;;;2.33;2.13;;;;;;;;;;4976030;28;20106;-74
2021/08/23 02:52:52;;;;;;;2.70;1.75;;;;;;;;;;4986721;28;20030;-73
2021/08/23 02:55:18;;;;;;;3.90;2.05;;;;;;;;;;4974302;28;20440;-74
2021/08/23 02:57:44;;;;;;;2.25;2.05;;;;;;;;;;4989405;28;20022;-74
2021/08/23 03:00:10;;;;;;;3.38;2.17;;;;;;;;;;4983255;28;20085;-73
2021/08/23 03:02:37;;;;;;;3.28;2.25;;;;;;;;;;4977768;28;20032;-73
2021/08/23 03:05:03;;;;;;;3.22;2.03;;;;;;;;;;4990269;28;20066;-73
2021/08/23 03:07:29;;;;;;;2.40;2.20;;;;;;;;;;4986955;28;20030;-73
2021/08/23 03:10:03;;;;;;;2.60;2.38;;;;;;;;;;4987137;28;20543;-73
2021/08/23 03:12:29;;;;;;;4.50;3.00;;;;;;;;;;4985742;28;20362;-74
2021/08/23 03:14:55;;;;;;;4.32;2.97;;;;;;;;;;4979019;28;20090;-73
2021/08/23 03:17:21;;;;;;;4.13;3.15;;;;;;;;;;4990399;28;20061;-73
2021/08/23 03:19:47;;;;;;;3.63;3.10;;;;;;;;;;4985495;28;20034;-73
2021/08/23 03:22:13;;;;;;;3.67;3.30;;;;;;;;;;4993432;28;20045;-74
2021/08/23 03:24:39;;;;;;;5.53;3.78;;;;;;;;;;4987977;28;20034;-73
2021/08/23 03:27:05;;;;;;;6.68;4.13;;;;;;;;;;4988624;28;20027;-73
2021/08/23 03:29:31;;;;;;;4.75;4.03;;;;;;;;;;4988980;28;20062;-74
2021/08/23 03:31:56;;;;;;;5.22;4.45;;;;;;;;;;4991729;28;20035;-74
2021/08/23 03:34:22;;;;;;;5.45;4.47;;;;;;;;;;4988235;28;20106;-73
2021/08/23 03:36:48;;;;;;;5.88;4.43;;;;;;;;;;4992802;28;20031;-73
2021/08/23 03:39:16;;;;;;;5.45;4.65;;;;;;;;;;4982890;28;20046;-71
2021/08/23 03:41:42;;;;;;;5.32;4.40;;;;;;;;;;4989226;28;20491;-74
2021/08/23 03:44:08;;;;;;;5.82;5.20;;;;;;;;;;4989120;28;20039;-73
2021/08/23 03:46:34;;;;;;;7.18;4.72;;;;;;;;;;4991265;28;20408;-73
2021/08/23 03:49:01;;;;;;;5.90;4.88;;;;;;;;;;4989511;28;20044;-73
2021/08/23 03:51:27;;;;;;;7.63;5.30;;;;;;;;;;4990921;28;20035;-73
2021/08/23 03:53:53;;;;;;;6.10;4.95;;;;;;;;;;4990362;28;20117;-74
2021/08/23 03:56:19;;;;;;;9.50;4.68;;;;;;;;;;4991784;28;20467;-73
2021/08/23 03:58:45;;;;;;;6.18;4.82;;;;;;;;;;4983790;28;20030;-74
2021/08/23 04:01:11;;;;;;;7.53;5.32;;;;;;;;;;4986938;28;20027;-73
2021/08/23 04:03:37;;;;;;;6.95;5.32;;;;;;;;;;4992568;28;20076;-74
2021/08/23 04:06:03;;;;;;;6.20;4.28;;;;;;;;;;4989784;28;20336;-73
2021/08/23 04:08:29;;;;;;;4.65;4.10;;;;;;;;;;4985503;28;20519;-74
2021/08/23 04:10:54;;;;;;;4.57;3.83;;;;;;;;;;4984964;28;20055;-73
2021/08/23 04:13:20;;;;;;;4.70;4.00;;;;;;;;;;4989473;28;20034;-73
2021/08/23 04:15:47;;;;;;;4.20;3.80;;;;;;;;;;4991997;28;20042;-73
2021/08/23 04:18:14;;;;;;;4.68;3.42;;;;;;;;;;4982914;28;20047;-73
2021/08/23 04:20:40;;;;;;;6.63;3.70;;;;;;;;;;4987994;28;20033;-73
2021/08/23 04:23:05;;;;;;;3.72;3.25;;;;;;;;;;4990621;28;20030;-73
2021/08/23 04:25:31;;;;;;;4.57;3.45;;;;;;;;;;4986273;28;20038;-73
2021/08/23 04:27:57;;;;;;;3.72;3.10;;;;;;;;;;4988398;28;20488;-73
2021/08/23 04:30:23;;;;;;;6.93;2.78;;;;;;;;;;4983979;28;20030;-74
2021/08/23 04:32:49;;;;;;;3.97;2.65;;;;;;;;;;4987395;28;20752;-75
2021/08/23 04:35:15;;;;;;;5.68;2.60;;;;;;;;;;4987045;28;20028;-72
2021/08/23 04:37:41;;;;;;;4.22;2.70;;;;;;;;;;4993492;28;20034;-72
2021/08/23 04:40:08;;;;;;;4.32;2.70;;;;;;;;;;4999034;28;20055;-72
2021/08/23 04:42:34;;;;;;;2.70;2.42;;;;;;;;;;4985783;28;20560;-72
2021/08/23 04:45:00;;;;;;;3.95;3.00;;;;;;;;;;4981086;28;20620;-72
2021/08/23 04:47:25;;;;;;;3.13;2.30;;;;;;;;;;4992150;28;20700;-74
2021/08/23 04:49:51;;;;;;;3.95;2.47;;;;;;;;;;4984345;28;20034;-73
2021/08/23 04:52:17;;;;;;;3.83;2.45;;;;;;;;;;4985882;28;20069;-73
2021/08/23 04:54:43;;;;;;;3.30;2.25;;;;;;;;;;4991134;28;20388;-73
2021/08/23 04:57:09;;;;;;;6.32;2.70;;;;;;;;;;4990402;28;20022;-75
2021/08/23 04:59:35;;;;;;;9.20;2.60;;;;;;;;;;4990633;28;20037;-75
2021/08/23 05:02:01;;;;;;;4.80;2.47;;;;;;;;;;4982285;28;20041;-75
2021/08/23 05:04:27;;;;;;;4.03;2.53;;;;;;;;;;4983384;28;20193;-75
2021/08/23 05:06:53;;;;;;;5.93;3.15;;;;;;;;;;4981014;28;20038;-75
2021/08/23 05:09:19;;;;;;;6.07;2.38;;;;;;;;;;4989685;28;20439;-75
2021/08/23 05:11:54;;;;;;;3.90;2.40;;;;;;;;;;4988722;28;20035;-75
2021/08/23 05:14:20;;;;;;;2.45;2.17;;;;;;;;;;4991039;28;20026;-75
2021/08/23 05:16:46;;;;;;;4.13;2.50;;;;;;;;;;4982086;28;20149;-75
2021/08/23 05:19:11;;;;;;;3.97;2.47;;;;;;;;;;4979616;28;20114;-77
2021/08/23 05:21:37;;;;;;;2.83;2.35;;;;;;;;;;4986988;28;20034;-77
2021/08/23 05:24:04;;;;;;;8.90;2.55;;;;;;;;;;4990651;28;20500;-75
2021/08/23 05:26:30;;;;;;;4.10;2.65;;;;;;;;;;4984506;28;20026;-76
2021/08/23 05:28:56;;;;;;;4.03;2.35;;;;;;;;;;4985019;28;20153;-86
2021/08/23 05:31:22;;;;;;;3.38;2.22;;;;;;;;;;4983498;28;20513;-74
2021/08/23 05:33:49;;;;;;;2.88;2.33;;;;;;;;;;4986524;28;20392;-74
2021/08/23 05:36:14;;;;;;;5.53;2.45;;;;;;;;;;4987370;28;20027;-74
2021/08/23 05:38:40;;;;;;;2.70;2.45;;;;;;;;;;4981089;28;20027;-74
2021/08/23 05:41:06;;;;;;;3.42;2.53;;;;;;;;;;4978978;28;20743;-74
2021/08/23 05:43:32;;;;;;;3.88;2.45;;;;;;;;;;4990783;28;20030;-75
2021/08/23 05:46:00;;;;;;;9.00;2.65;;;;;;;;;;4990687;28;20037;-74
2021/08/23 05:48:26;;;;;;;5.72;2.50;;;;;;;;;;4990736;28;20025;-74
2021/08/23 05:50:52;;;;;;;4.25;2.50;;;;;;;;;;4984830;28;20030;-74
2021/08/23 05:53:18;;;;;;;3.42;2.45;;;;;;;;;;4984960;28;20130;-74
2021/08/23 05:55:44;;;;;;;3.00;2.20;;;;;;;;;;4985365;28;20092;-74
2021/08/23 05:58:10;;;;;;;2.60;2.20;;;;;;;;;;4990543;28;20660;-73
2021/08/23 06:00:36;;;;;;;3.17;2.50;;;;;;;;;;4986497;28;20019;-74
2021/08/23 06:03:02;;;;;;;3.00;2.33;;;;;;;;;;4989492;28;20052;-74
2021/08/23 06:05:28;;;;;;;3.85;2.55;;;;;;;;;;4989831;28;20044;-73
2021/08/23 06:07:54;;;;;;;4.30;2.38;;;;;;;;;;4989540;28;20502;-75
2021/08/23 06:10:20;;;;;;;3.30;2.47;;;;;;;;;;4986037;28;20031;-74
2021/08/23 06:12:46;;;;;;;4.10;2.65;;;;;;;;;;4982644;28;20038;-73
2021/08/23 06:15:12;;;;;;;3.28;2.47;;;;;;;;;;4987803;28;20049;-73
2021/08/23 06:17:38;;;;;;;8.82;2.58;;;;;;;;;;4980334;28;20026;-73
2021/08/23 06:20:04;;;;;;;4.25;2.85;;;;;;;;;;4981900;28;20033;-73
2021/08/23 06:22:32;;;;;;;4.38;2.70;;;;;;;;;;4986174;28;20034;-78
2021/08/23 06:24:58;;;;;;;2.97;2.38;;;;;;;;;;4991106;28;20640;-75
2021/08/23 06:27:24;;;;;;;5.70;2.33;;;;;;;;;;4987747;28;20057;-75
2021/08/23 06:29:49;;;;;;;3.22;2.58;;;;;;;;;;4988913;28;20038;-74
2021/08/23 06:32:15;;;;;;;5.28;2.28;;;;;;;;;;4982138;28;20041;-76
2021/08/23 06:34:41;;;;;;;5.80;2.38;;;;;;;;;;4979662;28;20025;-75
2021/08/23 06:37:08;;;;;;;3.80;2.25;;;;;;;;;;4984149;28;20779;-75
2021/08/23 06:39:34;;;;;;;5.38;2.25;;;;;;;;;;4974784;28;20077;-73
2021/08/23 06:41:59;;;;;;;6.25;2.10;;;;;;;;;;4989024;28;20030;-73
2021/08/23 06:44:25;;;;;;;5.70;2.08;;;;;;;;;;4987403;28;20045;-73
2021/08/23 06:46:53;;;;;;;2.70;1.98;;;;;;;;;;4987230;28;20046;-75
2021/08/23 06:49:18;;;;;;;3.40;2.13;;;;;;;;;;4984363;28;20511;-71
2021/08/23 06:51:44;;;;;;;2.80;2.10;;;;;;;;;;4985999;28;20030;-71
2021/08/23 06:54:10;;;;;;;7.65;2.50;;;;;;;;;;4986047;28;20038;-74
2021/08/23 06:56:36;;;;;;;3.22;2.08;;;;;;;;;;4988107;28;20046;-71
2021/08/23 06:59:02;;;;;;;4.88;1.85;;;;;;;;;;4979957;28;20081;-72
2021/08/23 07:01:28;;;;;;;4.63;2.67;;;;;;;;;;4988190;28;20034;-74
2021/08/23 07:03:54;;;;;;;2.88;2.30;;;;;;;;;;4978912;28;20108;-74
2021/08/23 07:06:20;;;;;;;3.67;2.20;;;;;;;;;;4988645;28;20038;-74
2021/08/23 07:08:46;;;;;;;3.70;2.60;;;;;;;;;;4988502;28;20026;-74
2021/08/23 07:11:12;;;;;;;5.40;2.55;;;;;;;;;;4985859;28;20034;-71
2021/08/23 07:13:39;;;;;;;3.55;2.28;;;;;;;;;;4988421;28;20105;-71
2021/08/23 07:16:05;;;;;;;4.43;2.10;;;;;;;;;;4988043;28;20086;-72
2021/08/23 07:18:31;;;;;;;3.72;2.00;;;;;;;;;;4985023;28;20061;-72
2021/08/23 07:20:57;;;;;;;3.58;1.98;;;;;;;;;;4986715;28;20121;-72
2021/08/23 07:23:23;;;;;;;3.80;2.08;;;;;;;;;;4979272;28;20041;-72
2021/08/23 07:25:49;;;;;;;5.00;2.10;;;;;;;;;;4987974;28;20030;-72
2021/08/23 07:28:15;;;;;;;2.88;1.90;;;;;;;;;;4988098;28;20038;-72
2021/08/23 07:30:41;;;;;;;2.95;1.77;;;;;;;;;;4997807;28;20026;-72
2021/08/23 07:33:07;;;;;;;2.50;2.08;;;;;;;;;;4988609;28;20034;-72
2021/08/23 07:35:33;;;;;;;4.90;2.03;;;;;;;;;;4987652;28;20018;-72
2021/08/23 07:37:59;;;;;;;2.97;1.63;;;;;;;;;;4984228;28;20053;-72
2021/08/23 07:40:25;;;;;;;2.53;1.80;;;;;;;;;;4978647;28;20030;-72
2021/08/23 07:42:51;;;;;;;3.10;2.13;;;;;;;;;;4988174;28;20042;-72
2021/08/23 07:45:18;;;;;;;7.72;2.22;;;;;;;;;;4987698;28;20022;-72
2021/08/23 07:47:44;;;;;;;3.90;1.75;;;;;;;;;;4987842;28;20041;-72
2021/08/23 07:50:10;;;;;;;3.25;2.08;;;;;;;;;;4990485;28;20042;-72
2021/08/23 07:52:36;;;;;;;4.15;2.17;;;;;;;;;;4991857;28;20030;-72
2021/08/23 07:55:03;;;;;;;3.70;1.85;;;;;;;;;;4986948;28;20088;-72
2021/08/23 07:57:28;;;;;;;4.43;2.15;;;;;;;;;;4986750;28;20050;-72
2021/08/23 07:59:54;;;;;;;2.40;1.98;;;;;;;;;;4984561;28;20014;-72
2021/08/23 08:02:20;;;;;;;2.17;1.92;;;;;;;;;;4991829;28;20713;-72
2021/08/23 08:04:48;;;;;;;5.53;2.22;;;;;;;;;;4990596;28;20136;-72
2021/08/23 08:07:14;;;;;;;4.00;2.42;;;;;;;;;;4991828;28;20138;-72
2021/08/23 08:09:39;;;;;;;2.78;1.90;;;;;;;;;;4987371;28;20113;-72
2021/08/23 08:12:06;;;;;;;4.18;1.88;;;;;;;;;;4988914;28;20388;-72
2021/08/23 08:14:32;;;;;;;5.85;1.63;;;;;;;;;;4990490;28;20030;-72
2021/08/23 08:16:58;;;;;;;2.20;1.70;;;;;;;;;;4991355;28;20029;-72
2021/08/23 08:19:24;;;;;;;3.05;1.90;;;;;;;;;;4991200;28;20502;-72
2021/08/23 08:21:50;;;;;;;9.20;1.80;;;;;;;;;;4990579;28;20480;-72
2021/08/23 08:24:16;;;;;;;2.85;1.80;;;;;;;;;;4990817;28;20026;-72
2021/08/23 08:26:42;;;;;;;2.70;1.55;;;;;;;;;;4989815;28;20026;-72
2021/08/23 08:29:08;;;;;;;2.25;1.67;;;;;;;;;;4990202;28;20054;-72
2021/08/23 08:31:37;;;;;;;3.03;1.70;;;;;;;;;;5002806;28;20528;-72
2021/08/23 08:34:03;;;;;;;1.42;1.33;;;;;;;;;;4989195;28;20035;-73
2021/08/23 08:36:29;;;;;;;2.00;1.40;;;;;;;;;;4991149;28;20029;-72
2021/08/23 08:38:55;;;;;;;2.63;1.65;;;;;;;;;;4985531;28;20573;-73
2021/08/23 08:41:23;;;;;;;3.67;1.73;;;;;;;;;;4990926;28;20080;-73
2021/08/23 08:43:48;;;;;;;2.22;1.58;;;;;;;;;;4989789;28;20069;-73
2021/08/23 08:46:14;;;;;;;2.22;1.77;;;;;;;;;;4986101;28;20022;-72
2021/08/23 08:48:40;;;;;;;2.38;1.60;;;;;;;;;;4989979;28;20092;-73
2021/08/23 08:51:07;;;;;;;2.13;1.42;;;;;;;;;;4990916;28;20353;-73
2021/08/23 08:53:33;;;;;;;6.88;1.77;;;;;;;;;;4990932;28;20034;-72
2021/08/23 08:55:58;;;;;;;2.38;1.60;;;;;;;;;;4990304;28;20022;-73
2021/08/23 08:58:26;;;;;;;5.53;1.98;;;;;;;;;;4984152;28;20412;-72
2021/08/23 09:00:53;;;;;;;5.72;1.80;;;;;;;;;;4987663;28;20023;-72
2021/08/23 09:03:26;;;;;;;2.40;1.63;;;;;;;;;;4988435;28;20177;-72
2021/08/23 09:05:59;;;;;;;2.20;1.40;;;;;;;;;;4989706;28;20073;-73
2021/08/23 09:08:28;;;;;;;2.13;1.90;;;;;;;;;;4990066;28;20034;-72
2021/08/23 09:10:55;;;;;;;4.95;2.13;;;;;;;;;;4988586;28;20099;-72
2021/08/23 09:13:20;;;;;;;4.57;1.50;;;;;;;;;;4990299;28;20034;-73
2021/08/23 09:15:56;;;;;;;4.03;1.50;;;;;;;;;;4985788;28;20084;-73
2021/08/23 09:18:24;;;;;;;3.63;1.80;;;;;;;;;;4987757;28;20022;-73
2021/08/23 09:21:00;;;;;;;3.95;2.05;;;;;;;;;;4989483;28;20026;-73
2021/08/23 09:23:38;;;;;;;1.77;1.50;;;;;;;;;;4990497;28;20030;-73
2021/08/23 09:26:11;;;;;;;6.68;1.60;;;;;;;;;;4990240;28;20685;-73
2021/08/23 09:28:38;;;;;;;1.73;1.50;;;;;;;;;;4990309;28;20034;-72
2021/08/23 09:31:04;;;;;;;3.53;1.38;;;;;;;;;;4990316;28;20113;-73
2021/08/23 09:33:39;;;;;;;3.15;1.40;;;;;;;;;;4989875;28;20503;-72
2021/08/23 09:36:05;;;;;;;2.08;1.58;;;;;;;;;;4989934;28;20049;-73
2021/08/23 09:38:31;;;;;;;1.73;1.45;;;;;;;;;;4990113;28;20030;-72
2021/08/23 09:41:04;;;;;;;2.00;1.50;;;;;;;;;;4989444;28;20169;-72
2021/08/23 09:43:33;;;;;;;3.35;1.52;;;;;;;;;;4982943;28;20031;-73
2021/08/23 09:46:10;;;;;;;1.77;1.17;;;;;;;;;;4987512;28;20045;-72
2021/08/23 09:48:36;;;;;;;2.90;1.33;;;;;;;;;;4988901;28;20138;-72
2021/08/23 09:51:02;;;;;;;2.25;1.55;;;;;;;;;;4989348;28;20034;-73
2021/08/23 09:53:29;;;;;;;4.07;1.30;;;;;;;;;;4988453;28;20407;-73
2021/08/23 09:55:56;;;;;;;4.13;1.55;;;;;;;;;;4985468;28;20027;-72
2021/08/23 09:58:22;;;;;;;2.53;1.45;;;;;;;;;;4989624;28;20022;-73
2021/08/23 10:00:48;;;;;;;1.92;1.13;;;;;;;;;;4989035;28;20026;-73
2021/08/23 10:03:16;;;;;;;1.90;1.40;;;;;;;;;;4989068;28;20053;-73
2021/08/23 10:05:49;;;;;;;2.28;1.52;;;;;;;;;;4988356;28;20524;-72
2021/08/23 10:08:17;;;;;;;3.03;1.27;;;;;;;;;;4983831;28;20034;-72
2021/08/23 10:10:43;;;;;;;2.20;1.40;;;;;;;;;;4983887;28;20029;-73
2021/08/23 10:13:10;;;;;;;2.85;1.35;;;;;;;;;;4989380;28;20034;-73
2021/08/23 10:15:37;;;;;;;5.57;1.48;;;;;;;;;;4989200;28;20023;-72
2021/08/23 10:18:03;;;;;;;1.55;1.10;;;;;;;;;;4987524;28;20034;-73
2021/08/23 10:20:30;;;;;;;1.88;1.27;;;;;;;;;;4985903;28;20022;-73
2021/08/23 10:22:56;;;;;;;1.50;1.40;;;;;;;;;;4985005;28;20031;-73
2021/08/23 10:25:22;;;;;;;1.50;1.13;;;;;;;;;;4988775;28;20065;-73
2021/08/23 10:27:48;;;;;;;2.65;1.30;;;;;;;;;;4989071;28;20080;-72
2021/08/23 10:30:25;;;;;;;2.10;1.23;;;;;;;;;;4988575;28;20613;-73
2021/08/23 10:32:51;;;;;;;5.82;1.38;;;;;;;;;;4988964;28;20439;-73
2021/08/23 10:35:18;;;;;;;1.30;1.20;;;;;;;;;;4983089;28;20031;-72
2021/08/23 10:37:44;;;;;;;1.88;1.38;;;;;;;;;;4985731;28;20477;-73
2021/08/23 10:40:10;;;;;;;2.28;1.30;;;;;;;;;;4986758;28;20026;-72
2021/08/23 10:42:38;;;;;;;8.48;1.63;;;;;;;;;;4987973;28;20041;-73
2021/08/23 10:45:12;;;;;;;1.25;1.05;;;;;;;;;;4988429;28;20030;-72
2021/08/23 10:47:38;;;;;;;2.75;1.25;;;;;;;;;;4979541;28;20061;-72
2021/08/23 10:50:07;;;;;;;1.65;1.35;;;;;;;;;;4988529;28;20472;-72
2021/08/23 10:52:36;;;;;;;1.75;1.50;;;;;;;;;;4987062;28;20023;-73
2021/08/23 10:55:05;;;;;;;4.68;1.48;;;;;;;;;;4988163;28;20031;-73
2021/08/23 10:57:31;;;;;;;1.75;1.45;;;;;;;;;;4988676;28;20056;-73
2021/08/23 11:00:11;;;;;;;3.20;1.27;;;;;;;;;;4988096;28;20548;-73
2021/08/23 11:02:38;;;;;;;6.03;1.40;;;;;;;;;;4984586;28;20049;-72
2021/08/23 11:05:07;;;;;;;2.72;1.45;;;;;;;;;;4978402;28;20039;-73
2021/08/23 11:07:33;;;;;;;1.75;1.30;;;;;;;;;;4981624;28;20058;-73
2021/08/23 11:10:05;;;;;;;1.88;1.30;;;;;;;;;;4988086;28;20037;-73
2021/08/23 11:12:41;;;;;;;1.38;1.15;;;;;;;;;;4976648;28;20041;-73
2021/08/23 11:15:21;;;;;;;1.45;1.10;;;;;;;;;;4978881;28;20433;-73
2021/08/23 11:17:48;;;;;;;2.30;1.40;;;;;;;;;;4988028;28;20030;-73
2021/08/23 11:20:17;;;;;;;2.80;1.38;;;;;;;;;;4988277;28;20443;-72
2021/08/23 11:22:49;;;;;;;2.17;1.30;;;;;;;;;;4988117;28;20102;-73
2021/08/23 11:25:15;;;;;;;1.90;1.60;;;;;;;;;;4991054;28;20495;-72
2021/08/23 11:27:41;;;;;;;2.45;1.65;;;;;;;;;;4992312;28;20031;-73
2021/08/23 11:30:07;;;;;;;1.20;1.10;;;;;;;;;;4996472;28;20036;-72
2021/08/23 11:32:33;;;;;;;2.05;1.27;;;;;;;;;;4997640;28;20037;-73
2021/08/23 11:35:00;;;;;;;1.77;1.17;;;;;;;;;;4991896;28;20097;-72
2021/08/23 11:37:27;;;;;;;6.70;1.55;;;;;;;;;;4991093;28;20037;-72
2021/08/23 11:40:22;;;;;;;2.20;1.50;;;;;;;;;;4991727;28;20022;-73
2021/08/23 11:42:51;;;;;;;1.33;1.23;;;;;;;;;;4974506;28;20053;-72
2021/08/23 11:45:24;;;;;;;7.40;1.58;;;;;;;;;;4991437;28;20048;-72
2021/08/23 11:47:51;;;;;;;1.60;1.30;;;;;;;;;;4989725;28;20026;-73
2021/08/23 11:50:18;;;;;;;2.22;1.42;;;;;;;;;;4992175;28;20425;-73
2021/08/23 11:52:44;;;;;;;3.17;1.02;;;;;;;;;;4991947;28;20110;-73
2021/08/23 11:55:10;;;;;;;2.08;1.40;;;;;;;;;;4992168;28;20404;-73
2021/08/23 11:57:36;;;;;;;3.42;1.48;;;;;;;;;;4991036;28;20080;-73
2021/08/23 12:00:04;;;;;;;3.92;1.30;;;;;;;;;;4989395;28;20064;-73
2021/08/23 12:02:31;;;;;;;3.85;1.70;;;;;;;;;;4991731;28;20030;-74
2021/08/23 12:05:10;;;;;;;3.50;1.30;;;;;;;;;;4991727;28;20034;-73
2021/08/23 12:07:43;;;;;;;1.67;1.10;;;;;;;;;;4989469;28;20105;-73
2021/08/23 12:10:09;;;;;;;3.70;1.58;;;;;;;;;;4991403;28;20042;-73
2021/08/23 12:12:35;;;;;;;2.60;1.58;;;;;;;;;;4989744;28;20089;-72
2021/08/23 12:15:01;;;;;;;2.30;1.50;;;;;;;;;;4991271;28;20030;-72
2021/08/23 12:17:31;;;;;;;4.05;1.45;;;;;;;;;;4991196;28;20014;-73
2021/08/23 12:20:06;;;;;;;2.40;1.52;;;;;;;;;;4990247;28;20022;-73
2021/08/23 12:22:32;;;;;;;2.13;1.30;;;;;;;;;;4991066;28;20077;-74
2021/08/23 12:25:01;;;;;;;2.70;1.33;;;;;;;;;;4991004;28;20548;-73
2021/08/23 12:27:27;;;;;;;11.77;1.52;;;;;;;;;;4991559;28;20069;-72
2021/08/23 12:29:53;;;;;;;3.92;1.30;;;;;;;;;;4996359;28;20523;-72
2021/08/23 12:32:19;;;;;;;2.67;1.30;;;;;;;;;;4998991;28;20468;-73
2021/08/23 12:34:49;;;;;;;1.52;1.20;;;;;;;;;;4991114;28;20019;-73
2021/08/23 12:37:18;;;;;;;7.00;1.50;;;;;;;;;;4987309;28;20026;-73
2021/08/23 12:39:45;;;;;;;1.38;1.10;;;;;;;;;;4990306;28;20023;-73
2021/08/23 12:42:11;;;;;;;3.28;1.58;;;;;;;;;;4990910;28;20683;-73
2021/08/23 12:44:38;;;;;;;3.53;1.30;;;;;;;;;;4990286;28;20034;-72
2021/08/23 12:47:04;;;;;;;1.67;1.05;;;;;;;;;;4990616;28;20038;-73
2021/08/23 12:49:30;;;;;;;1.90;1.13;;;;;;;;;;4990893;28;20057;-73
2021/08/23 12:51:56;;;;;;;4.15;1.60;;;;;;;;;;4990879;28;20030;-73
2021/08/23 12:54:23;;;;;;;3.00;1.05;;;;;;;;;;4988707;28;20041;-72
2021/08/23 12:56:49;;;;;;;2.10;1.08;;;;;;;;;;4989128;28;20025;-72
2021/08/23 12:59:15;;;;;;;3.85;1.30;;;;;;;;;;4990241;28;20109;-73
2021/08/23 13:01:41;;;;;;;4.13;1.70;;;;;;;;;;4990775;28;20034;-72
2021/08/23 13:04:16;;;;;;;1.98;1.15;;;;;;;;;;4986413;28;20400;-73
2021/08/23 13:06:43;;;;;;;2.70;1.35;;;;;;;;;;4987579;28;20157;-72
2021/08/23 13:09:08;;;;;;;2.70;1.58;;;;;;;;;;4989312;28;20176;-72
2021/08/23 13:11:36;;;;;;;2.28;1.60;;;;;;;;;;4987648;28;20489;-72
2021/08/23 13:14:02;;;;;;;2.70;1.40;;;;;;;;;;4986701;28;20034;-72
2021/08/23 13:16:30;;;;;;;2.15;1.42;;;;;;;;;;4982161;28;20547;-72
2021/08/23 13:18:56;;;;;;;3.63;1.42;;;;;;;;;;4987319;28;20034;-73
2021/08/23 13:21:23;;;;;;;2.13;1.23;;;;;;;;;;4986298;28;20205;-73
2021/08/23 13:23:48;;;;;;;4.72;1.40;;;;;;;;;;4982609;28;20022;-73
2021/08/23 13:26:14;;;;;;;2.42;1.58;;;;;;;;;;4975897;28;20015;-73
2021/08/23 13:28:40;;;;;;;1.73;1.30;;;;;;;;;;4978870;28;20018;-72
2021/08/23 13:31:06;;;;;;;2.63;1.40;;;;;;;;;;5001878;28;20034;-72
2021/08/23 13:33:35;;;;;;;1.95;1.40;;;;;;;;;;4990462;28;20418;-73
2021/08/23 13:36:02;;;;;;;2.85;1.40;;;;;;;;;;4989855;28;20038;-73
2021/08/23 13:38:28;;;;;;;3.53;1.40;;;;;;;;;;4985008;28;20030;-74
2021/08/23 13:40:57;;;;;;;4.88;1.80;;;;;;;;;;4989225;28;20025;-73
2021/08/23 13:43:28;;;;;;;1.95;1.13;;;;;;;;;;4989762;28;20041;-73
2021/08/23 13:45:54;;;;;;;1.65;1.17;;;;;;;;;;4989076;28;20053;-73
2021/08/23 13:48:20;;;;;;;1.63;1.20;;;;;;;;;;4985704;28;20057;-73
2021/08/23 13:50:46;;;;;;;3.58;1.60;;;;;;;;;;4989429;28;20352;-73
2021/08/23 13:53:18;;;;;;;3.40;1.60;;;;;;;;;;4989482;28;20037;-73
2021/08/23 13:55:47;;;;;;;6.68;1.65;;;;;;;;;;4988136;28;20023;-74
2021/08/23 13:58:13;;;;;;;2.67;1.70;;;;;;;;;;4989446;28;20029;-72
2021/08/23 14:00:42;;;;;;;2.67;1.60;;;;;;;;;;4983296;28;20094;-74
2021/08/23 14:03:08;;;;;;;2.08;1.23;;;;;;;;;;4983818;28;20455;-73
2021/08/23 14:05:37;;;;;;;2.42;1.38;;;;;;;;;;4988274;28;20030;-72
2021/08/23 14:08:03;;;;;;;2.78;1.48;;;;;;;;;;4980892;28;20050;-73
2021/08/23 14:10:30;;;;;;;2.08;1.33;;;;;;;;;;4976906;28;20038;-73
2021/08/23 14:12:56;;;;;;;4.85;1.75;;;;;;;;;;4989176;28;20040;-74
2021/08/23 14:15:22;;;;;;;2.20;1.60;;;;;;;;;;4985158;28;20393;-73
2021/08/23 14:17:48;;;;;;;6.15;1.63;;;;;;;;;;4998452;28;20023;-73
2021/08/23 14:20:14;;;;;;;2.55;1.55;;;;;;;;;;4987608;28;20027;-73
2021/08/23 14:22:40;;;;;;;4.43;1.30;;;;;;;;;;4984029;28;20036;-73
2021/08/23 14:25:06;;;;;;;3.08;1.42;;;;;;;;;;4987496;28;20667;-72
2021/08/23 14:27:33;;;;;;;2.60;1.38;;;;;;;;;;4985197;28;20496;-73
2021/08/23 14:29:59;;;;;;;1.90;1.27;;;;;;;;;;4991330;28;20048;-73
2021/08/23 14:32:25;;;;;;;3.25;1.50;;;;;;;;;;4995334;28;20023;-74
2021/08/23 14:34:50;;;;;;;3.50;1.75;;;;;;;;;;4995709;28;20445;-73
2021/08/23 14:37:16;;;;;;;1.48;1.13;;;;;;;;;;4988140;28;20057;-73
2021/08/23 14:39:42;;;;;;;7.57;1.27;;;;;;;;;;4987344;28;20618;-74